sensor_id;sensor_type;location;lat;lon;timestamp;P1;durP1;ratioP1;P2;durP2;ratioP2
64795;SDS011;51229;51.980;6.722;2022-12-17T00:00:44;80.22;;;27.60;;
64795;SDS011;51229;51.980;6.722;2022-12-17T00:03:28;80.90;;;26.77;;
64795;SDS011;51229;51.980;6.722;2022-12-17T00:06:13;93.22;;;29.70;;
64795;SDS011;51229;51.980;6.722;2022-12-17T00:08:57;83.47;;;26.35;;
64795;SDS011;51229;51.980;6.722;2022-12-17T00:11:41;83.10;;;28.50;;
64795;SDS011;51229;51.980;6.722;2022-12-17T00:14:25;86.28;;;27.30;;
64795;SDS011;51229;51.980;6.722;2022-12-17T00:17:09;79.75;;;26.25;;
64795;SDS011;51229;51.980;6.722;2022-12-17T00:19:54;76.00;;;25.17;;
64795;SDS011;51229;51.980;6.722;2022-12-17T00:22:38;79.95;;;26.38;;
64795;SDS011;51229;51.980;6.722;2022-12-17T00:25:22;77.53;;;25.25;;
64795;SDS011;51229;51.980;6.722;2022-12-17T00:28:10;86.90;;;27.92;;
64795;SDS011;51229;51.980;6.722;2022-12-17T00:30:55;73.47;;;26.15;;
64795;SDS011;51229;51.980;6.722;2022-12-17T00:33:39;71.75;;;24.13;;
64795;SDS011;51229;51.980;6.722;2022-12-17T00:36:24;68.70;;;25.23;;
64795;SDS011;51229;51.980;6.722;2022-12-17T00:39:08;70.72;;;23.90;;
64795;SDS011;51229;51.980;6.722;2022-12-17T00:41:53;76.70;;;27.10;;
64795;SDS011;51229;51.980;6.722;2022-12-17T00:44:37;58.78;;;21.20;;
64795;SDS011;51229;51.980;6.722;2022-12-17T00:47:29;71.28;;;25.85;;
64795;SDS011;51229;51.980;6.722;2022-12-17T00:50:13;50.83;;;16.92;;
64795;SDS011;51229;51.980;6.722;2022-12-17T00:52:57;56.30;;;19.70;;
64795;SDS011;51229;51.980;6.722;2022-12-17T00:55:41;66.05;;;22.45;;
64795;SDS011;51229;51.980;6.722;2022-12-17T00:58:26;59.50;;;19.92;;
64795;SDS011;51229;51.980;6.722;2022-12-17T01:01:10;70.05;;;23.10;;
64795;SDS011;51229;51.980;6.722;2022-12-17T01:03:54;75.95;;;25.30;;
64795;SDS011;51229;51.980;6.722;2022-12-17T01:06:38;68.15;;;21.38;;
64795;SDS011;51229;51.980;6.722;2022-12-17T01:09:23;56.15;;;19.73;;
64795;SDS011;51229;51.980;6.722;2022-12-17T01:12:21;70.25;;;24.80;;
64795;SDS011;51229;51.980;6.722;2022-12-17T01:15:05;75.38;;;25.05;;
64795;SDS011;51229;51.980;6.722;2022-12-17T01:17:49;74.95;;;25.75;;
64795;SDS011;51229;51.980;6.722;2022-12-17T01:20:36;81.45;;;26.75;;
64795;SDS011;51229;51.980;6.722;2022-12-17T01:23:20;85.05;;;29.70;;
64795;SDS011;51229;51.980;6.722;2022-12-17T01:26:04;77.93;;;25.33;;
64795;SDS011;51229;51.980;6.722;2022-12-17T01:28:48;78.22;;;26.88;;
64795;SDS011;51229;51.980;6.722;2022-12-17T01:31:33;75.18;;;24.35;;
64795;SDS011;51229;51.980;6.722;2022-12-17T01:34:17;65.18;;;19.92;;
64795;SDS011;51229;51.980;6.722;2022-12-17T01:37:01;86.82;;;26.30;;
64795;SDS011;51229;51.980;6.722;2022-12-17T01:39:46;77.32;;;25.70;;
64795;SDS011;51229;51.980;6.722;2022-12-17T01:42:37;77.45;;;25.38;;
64795;SDS011;51229;51.980;6.722;2022-12-17T01:45:22;85.50;;;26.70;;
64795;SDS011;51229;51.980;6.722;2022-12-17T01:48:07;93.40;;;26.60;;
64795;SDS011;51229;51.980;6.722;2022-12-17T01:50:57;85.55;;;27.45;;
64795;SDS011;51229;51.980;6.722;2022-12-17T01:53:48;74.25;;;24.67;;
64795;SDS011;51229;51.980;6.722;2022-12-17T01:56:36;77.85;;;25.10;;
64795;SDS011;51229;51.980;6.722;2022-12-17T01:59:28;90.72;;;27.67;;
64795;SDS011;51229;51.980;6.722;2022-12-17T02:02:38;89.97;;;27.13;;
64795;SDS011;51229;51.980;6.722;2022-12-17T02:05:26;87.25;;;26.08;;
64795;SDS011;51229;51.980;6.722;2022-12-17T02:08:26;79.57;;;23.92;;
64795;SDS011;51229;51.980;6.722;2022-12-17T02:11:31;85.10;;;27.10;;
64795;SDS011;51229;51.980;6.722;2022-12-17T02:14:37;80.13;;;27.27;;
64795;SDS011;51229;51.980;6.722;2022-12-17T02:17:28;73.32;;;24.20;;
64795;SDS011;51229;51.980;6.722;2022-12-17T02:20:22;76.32;;;22.00;;
64795;SDS011;51229;51.980;6.722;2022-12-17T02:23:16;74.60;;;22.23;;
64795;SDS011;51229;51.980;6.722;2022-12-17T02:29:27;78.60;;;24.17;;
64795;SDS011;51229;51.980;6.722;2022-12-17T02:32:16;54.97;;;17.95;;
64795;SDS011;51229;51.980;6.722;2022-12-17T02:35:03;67.95;;;22.48;;
64795;SDS011;51229;51.980;6.722;2022-12-17T02:37:53;69.10;;;22.45;;
64795;SDS011;51229;51.980;6.722;2022-12-17T02:40:39;77.22;;;23.20;;
64795;SDS011;51229;51.980;6.722;2022-12-17T02:43:26;71.47;;;23.55;;
64795;SDS011;51229;51.980;6.722;2022-12-17T02:46:13;87.68;;;24.27;;
64795;SDS011;51229;51.980;6.722;2022-12-17T02:48:58;70.57;;;23.23;;
64795;SDS011;51229;51.980;6.722;2022-12-17T02:51:43;69.22;;;23.70;;
64795;SDS011;51229;51.980;6.722;2022-12-17T02:54:33;77.70;;;22.98;;
64795;SDS011;51229;51.980;6.722;2022-12-17T02:57:18;73.78;;;20.75;;
64795;SDS011;51229;51.980;6.722;2022-12-17T03:00:05;74.05;;;22.08;;
64795;SDS011;51229;51.980;6.722;2022-12-17T03:02:50;73.93;;;23.60;;
64795;SDS011;51229;51.980;6.722;2022-12-17T03:05:34;74.18;;;23.45;;
64795;SDS011;51229;51.980;6.722;2022-12-17T03:08:18;81.97;;;23.75;;
64795;SDS011;51229;51.980;6.722;2022-12-17T03:11:02;67.25;;;22.35;;
64795;SDS011;51229;51.980;6.722;2022-12-17T03:13:46;76.68;;;22.48;;
64795;SDS011;51229;51.980;6.722;2022-12-17T03:16:30;78.55;;;23.00;;
64795;SDS011;51229;51.980;6.722;2022-12-17T03:19:14;71.18;;;22.50;;
64795;SDS011;51229;51.980;6.722;2022-12-17T03:22:12;67.55;;;22.02;;
64795;SDS011;51229;51.980;6.722;2022-12-17T03:24:57;74.28;;;22.63;;
64795;SDS011;51229;51.980;6.722;2022-12-17T03:27:41;74.80;;;22.27;;
64795;SDS011;51229;51.980;6.722;2022-12-17T03:30:25;68.18;;;21.67;;
64795;SDS011;51229;51.980;6.722;2022-12-17T03:33:10;53.45;;;17.77;;
64795;SDS011;51229;51.980;6.722;2022-12-17T03:35:54;72.75;;;22.25;;
64795;SDS011;51229;51.980;6.722;2022-12-17T03:38:38;55.25;;;19.55;;
64795;SDS011;51229;51.980;6.722;2022-12-17T03:41:22;69.70;;;23.65;;
64795;SDS011;51229;51.980;6.722;2022-12-17T03:44:06;63.67;;;22.52;;
64795;SDS011;51229;51.980;6.722;2022-12-17T03:46:50;63.15;;;22.30;;
64795;SDS011;51229;51.980;6.722;2022-12-17T03:49:35;66.38;;;22.65;;
64795;SDS011;51229;51.980;6.722;2022-12-17T03:52:19;52.75;;;20.75;;
64795;SDS011;51229;51.980;6.722;2022-12-17T03:55:03;61.38;;;21.15;;
64795;SDS011;51229;51.980;6.722;2022-12-17T03:57:48;66.30;;;22.23;;
64795;SDS011;51229;51.980;6.722;2022-12-17T04:00:32;57.47;;;18.55;;
64795;SDS011;51229;51.980;6.722;2022-12-17T04:03:16;60.75;;;21.48;;
64795;SDS011;51229;51.980;6.722;2022-12-17T04:06:00;62.53;;;21.58;;
64795;SDS011;51229;51.980;6.722;2022-12-17T04:08:45;63.00;;;20.63;;
64795;SDS011;51229;51.980;6.722;2022-12-17T04:11:29;47.08;;;16.88;;
64795;SDS011;51229;51.980;6.722;2022-12-17T04:14:13;60.58;;;20.80;;
64795;SDS011;51229;51.980;6.722;2022-12-17T04:16:58;54.03;;;19.02;;
64795;SDS011;51229;51.980;6.722;2022-12-17T04:19:42;52.25;;;17.75;;
64795;SDS011;51229;51.980;6.722;2022-12-17T04:22:26;54.75;;;20.20;;
64795;SDS011;51229;51.980;6.722;2022-12-17T04:25:10;54.50;;;20.30;;
64795;SDS011;51229;51.980;6.722;2022-12-17T04:27:54;63.03;;;19.95;;
64795;SDS011;51229;51.980;6.722;2022-12-17T04:30:39;56.60;;;19.27;;
64795;SDS011;51229;51.980;6.722;2022-12-17T04:33:23;51.47;;;17.50;;
64795;SDS011;51229;51.980;6.722;2022-12-17T04:36:07;52.55;;;17.45;;
64795;SDS011;51229;51.980;6.722;2022-12-17T04:38:51;58.53;;;19.85;;
64795;SDS011;51229;51.980;6.722;2022-12-17T04:41:35;54.65;;;17.85;;
64795;SDS011;51229;51.980;6.722;2022-12-17T04:44:20;50.35;;;17.05;;
64795;SDS011;51229;51.980;6.722;2022-12-17T04:47:04;48.67;;;16.98;;
64795;SDS011;51229;51.980;6.722;2022-12-17T04:49:48;51.63;;;20.17;;
64795;SDS011;51229;51.980;6.722;2022-12-17T04:52:32;44.75;;;16.30;;
64795;SDS011;51229;51.980;6.722;2022-12-17T04:55:16;39.30;;;15.32;;
64795;SDS011;51229;51.980;6.722;2022-12-17T04:58:01;48.38;;;15.63;;
64795;SDS011;51229;51.980;6.722;2022-12-17T05:00:47;53.40;;;18.02;;
64795;SDS011;51229;51.980;6.722;2022-12-17T05:03:33;50.53;;;17.85;;
64795;SDS011;51229;51.980;6.722;2022-12-17T05:06:17;50.10;;;17.75;;
64795;SDS011;51229;51.980;6.722;2022-12-17T05:09:02;62.72;;;19.38;;
64795;SDS011;51229;51.980;6.722;2022-12-17T05:11:46;55.40;;;18.85;;
64795;SDS011;51229;51.980;6.722;2022-12-17T05:14:30;50.60;;;17.63;;
64795;SDS011;51229;51.980;6.722;2022-12-17T05:17:14;47.03;;;15.18;;
64795;SDS011;51229;51.980;6.722;2022-12-17T05:19:58;44.58;;;15.40;;
64795;SDS011;51229;51.980;6.722;2022-12-17T05:22:42;55.15;;;18.70;;
64795;SDS011;51229;51.980;6.722;2022-12-17T05:25:26;61.30;;;20.00;;
64795;SDS011;51229;51.980;6.722;2022-12-17T05:28:10;53.85;;;18.20;;
64795;SDS011;51229;51.980;6.722;2022-12-17T05:30:55;62.10;;;19.75;;
64795;SDS011;51229;51.980;6.722;2022-12-17T05:33:40;50.50;;;17.50;;
64795;SDS011;51229;51.980;6.722;2022-12-17T05:36:24;52.55;;;20.08;;
64795;SDS011;51229;51.980;6.722;2022-12-17T05:39:08;54.63;;;19.98;;
64795;SDS011;51229;51.980;6.722;2022-12-17T05:41:53;52.97;;;18.75;;
64795;SDS011;51229;51.980;6.722;2022-12-17T05:44:37;53.92;;;18.88;;
64795;SDS011;51229;51.980;6.722;2022-12-17T05:47:22;61.20;;;20.65;;
64795;SDS011;51229;51.980;6.722;2022-12-17T05:50:06;62.17;;;21.17;;
64795;SDS011;51229;51.980;6.722;2022-12-17T05:52:50;52.60;;;18.13;;
64795;SDS011;51229;51.980;6.722;2022-12-17T05:55:35;62.08;;;20.48;;
64795;SDS011;51229;51.980;6.722;2022-12-17T05:58:19;60.30;;;20.48;;
64795;SDS011;51229;51.980;6.722;2022-12-17T06:01:03;57.25;;;19.88;;
64795;SDS011;51229;51.980;6.722;2022-12-17T06:03:59;58.53;;;19.85;;
64795;SDS011;51229;51.980;6.722;2022-12-17T06:06:43;55.97;;;18.88;;
64795;SDS011;51229;51.980;6.722;2022-12-17T06:09:28;63.50;;;22.33;;
64795;SDS011;51229;51.980;6.722;2022-12-17T06:12:12;61.40;;;21.88;;
64795;SDS011;51229;51.980;6.722;2022-12-17T06:14:56;68.95;;;22.23;;
64795;SDS011;51229;51.980;6.722;2022-12-17T06:17:41;51.15;;;18.02;;
64795;SDS011;51229;51.980;6.722;2022-12-17T06:20:25;64.57;;;20.33;;
64795;SDS011;51229;51.980;6.722;2022-12-17T06:23:09;63.72;;;20.92;;
64795;SDS011;51229;51.980;6.722;2022-12-17T06:25:54;59.30;;;19.17;;
64795;SDS011;51229;51.980;6.722;2022-12-17T06:28:39;49.90;;;17.20;;
64795;SDS011;51229;51.980;6.722;2022-12-17T06:31:24;72.50;;;24.95;;
64795;SDS011;51229;51.980;6.722;2022-12-17T06:34:10;59.08;;;20.08;;
64795;SDS011;51229;51.980;6.722;2022-12-17T06:36:54;58.28;;;19.60;;
64795;SDS011;51229;51.980;6.722;2022-12-17T06:39:39;52.00;;;15.15;;
64795;SDS011;51229;51.980;6.722;2022-12-17T06:42:23;66.13;;;21.40;;
64795;SDS011;51229;51.980;6.722;2022-12-17T06:45:07;56.95;;;18.55;;
64795;SDS011;51229;51.980;6.722;2022-12-17T06:47:51;57.55;;;18.45;;
64795;SDS011;51229;51.980;6.722;2022-12-17T06:50:35;62.53;;;20.40;;
64795;SDS011;51229;51.980;6.722;2022-12-17T06:53:20;66.93;;;21.95;;
64795;SDS011;51229;51.980;6.722;2022-12-17T06:56:04;63.97;;;19.10;;
64795;SDS011;51229;51.980;6.722;2022-12-17T06:58:48;60.35;;;20.83;;
64795;SDS011;51229;51.980;6.722;2022-12-17T07:01:32;58.67;;;18.15;;
64795;SDS011;51229;51.980;6.722;2022-12-17T07:04:16;50.85;;;17.85;;
64795;SDS011;51229;51.980;6.722;2022-12-17T07:07:00;68.38;;;19.83;;
64795;SDS011;51229;51.980;6.722;2022-12-17T07:09:44;52.22;;;17.92;;
64795;SDS011;51229;51.980;6.722;2022-12-17T07:12:29;58.53;;;18.83;;
64795;SDS011;51229;51.980;6.722;2022-12-17T07:15:13;62.40;;;18.50;;
64795;SDS011;51229;51.980;6.722;2022-12-17T07:18:05;63.33;;;19.23;;
64795;SDS011;51229;51.980;6.722;2022-12-17T07:20:51;61.92;;;18.10;;
64795;SDS011;51229;51.980;6.722;2022-12-17T07:23:36;64.72;;;18.13;;
64795;SDS011;51229;51.980;6.722;2022-12-17T07:26:20;59.85;;;20.08;;
64795;SDS011;51229;51.980;6.722;2022-12-17T07:29:05;41.13;;;15.10;;
64795;SDS011;51229;51.980;6.722;2022-12-17T07:31:49;60.97;;;19.80;;
64795;SDS011;51229;51.980;6.722;2022-12-17T07:34:33;49.17;;;17.25;;
64795;SDS011;51229;51.980;6.722;2022-12-17T07:37:17;43.58;;;16.02;;
64795;SDS011;51229;51.980;6.722;2022-12-17T07:40:02;26.73;;;8.98;;
64795;SDS011;51229;51.980;6.722;2022-12-17T07:42:47;56.92;;;17.60;;
64795;SDS011;51229;51.980;6.722;2022-12-17T07:45:31;36.13;;;12.80;;
64795;SDS011;51229;51.980;6.722;2022-12-17T07:48:15;45.15;;;16.05;;
64795;SDS011;51229;51.980;6.722;2022-12-17T07:50:59;43.70;;;13.77;;
64795;SDS011;51229;51.980;6.722;2022-12-17T07:53:44;47.95;;;16.77;;
64795;SDS011;51229;51.980;6.722;2022-12-17T07:56:28;40.38;;;13.25;;
64795;SDS011;51229;51.980;6.722;2022-12-17T07:59:12;57.78;;;17.45;;
64795;SDS011;51229;51.980;6.722;2022-12-17T08:01:56;61.35;;;20.00;;
64795;SDS011;51229;51.980;6.722;2022-12-17T08:04:40;54.88;;;18.85;;
64795;SDS011;51229;51.980;6.722;2022-12-17T08:07:25;49.22;;;17.05;;
64795;SDS011;51229;51.980;6.722;2022-12-17T08:10:09;62.85;;;19.00;;
64795;SDS011;51229;51.980;6.722;2022-12-17T08:12:58;55.20;;;18.52;;
64795;SDS011;51229;51.980;6.722;2022-12-17T08:15:48;40.38;;;11.60;;
64795;SDS011;51229;51.980;6.722;2022-12-17T08:18:35;49.85;;;14.07;;
64795;SDS011;51229;51.980;6.722;2022-12-17T08:21:19;46.22;;;16.55;;
64795;SDS011;51229;51.980;6.722;2022-12-17T08:24:04;45.80;;;15.23;;
64795;SDS011;51229;51.980;6.722;2022-12-17T08:26:48;53.33;;;18.33;;
64795;SDS011;51229;51.980;6.722;2022-12-17T08:29:32;57.10;;;18.63;;
64795;SDS011;51229;51.980;6.722;2022-12-17T08:32:16;68.38;;;20.27;;
64795;SDS011;51229;51.980;6.722;2022-12-17T08:35:01;67.28;;;22.05;;
64795;SDS011;51229;51.980;6.722;2022-12-17T08:37:45;55.85;;;18.80;;
64795;SDS011;51229;51.980;6.722;2022-12-17T08:40:29;49.90;;;16.45;;
64795;SDS011;51229;51.980;6.722;2022-12-17T08:43:15;63.60;;;19.83;;
64795;SDS011;51229;51.980;6.722;2022-12-17T08:46:00;60.10;;;19.58;;
64795;SDS011;51229;51.980;6.722;2022-12-17T08:48:44;59.45;;;19.23;;
64795;SDS011;51229;51.980;6.722;2022-12-17T08:51:28;61.88;;;20.00;;
64795;SDS011;51229;51.980;6.722;2022-12-17T08:54:12;65.78;;;20.58;;
64795;SDS011;51229;51.980;6.722;2022-12-17T08:56:57;47.28;;;14.70;;
64795;SDS011;51229;51.980;6.722;2022-12-17T08:59:41;65.30;;;19.63;;
64795;SDS011;51229;51.980;6.722;2022-12-17T09:02:25;60.95;;;19.25;;
64795;SDS011;51229;51.980;6.722;2022-12-17T09:05:11;69.70;;;19.40;;
64795;SDS011;51229;51.980;6.722;2022-12-17T09:08:02;67.68;;;20.20;;
64795;SDS011;51229;51.980;6.722;2022-12-17T09:10:48;69.53;;;21.77;;
64795;SDS011;51229;51.980;6.722;2022-12-17T09:13:33;56.75;;;19.05;;
64795;SDS011;51229;51.980;6.722;2022-12-17T09:16:18;74.57;;;20.73;;
64795;SDS011;51229;51.980;6.722;2022-12-17T09:19:02;67.85;;;21.15;;
64795;SDS011;51229;51.980;6.722;2022-12-17T09:21:47;65.38;;;22.08;;
64795;SDS011;51229;51.980;6.722;2022-12-17T09:24:32;59.75;;;18.27;;
64795;SDS011;51229;51.980;6.722;2022-12-17T09:27:16;49.92;;;17.50;;
64795;SDS011;51229;51.980;6.722;2022-12-17T09:30:01;69.07;;;20.92;;
64795;SDS011;51229;51.980;6.722;2022-12-17T09:32:45;63.15;;;19.08;;
64795;SDS011;51229;51.980;6.722;2022-12-17T09:35:29;70.05;;;22.23;;
64795;SDS011;51229;51.980;6.722;2022-12-17T09:38:14;60.15;;;19.35;;
64795;SDS011;51229;51.980;6.722;2022-12-17T09:40:59;64.75;;;21.38;;
64795;SDS011;51229;51.980;6.722;2022-12-17T09:44:00;55.97;;;15.82;;
64795;SDS011;51229;51.980;6.722;2022-12-17T09:46:58;68.55;;;20.52;;
64795;SDS011;51229;51.980;6.722;2022-12-17T09:50:05;58.47;;;18.67;;
64795;SDS011;51229;51.980;6.722;2022-12-17T09:52:56;65.10;;;20.20;;
64795;SDS011;51229;51.980;6.722;2022-12-17T09:55:46;57.13;;;18.90;;
64795;SDS011;51229;51.980;6.722;2022-12-17T09:58:39;51.50;;;15.40;;
64795;SDS011;51229;51.980;6.722;2022-12-17T10:01:24;73.88;;;23.70;;
64795;SDS011;51229;51.980;6.722;2022-12-17T10:04:19;55.35;;;17.63;;
64795;SDS011;51229;51.980;6.722;2022-12-17T10:07:14;57.65;;;18.85;;
64795;SDS011;51229;51.980;6.722;2022-12-17T10:10:05;64.50;;;20.20;;
64795;SDS011;51229;51.980;6.722;2022-12-17T10:16:36;65.63;;;22.25;;
64795;SDS011;51229;51.980;6.722;2022-12-17T10:19:28;64.05;;;20.10;;
64795;SDS011;51229;51.980;6.722;2022-12-17T10:22:19;49.83;;;17.38;;
64795;SDS011;51229;51.980;6.722;2022-12-17T10:25:14;68.88;;;21.33;;
64795;SDS011;51229;51.980;6.722;2022-12-17T10:28:01;63.00;;;19.83;;
64795;SDS011;51229;51.980;6.722;2022-12-17T10:30:48;67.65;;;21.98;;
64795;SDS011;51229;51.980;6.722;2022-12-17T10:33:35;54.30;;;18.90;;
64795;SDS011;51229;51.980;6.722;2022-12-17T10:36:22;61.90;;;19.90;;
64795;SDS011;51229;51.980;6.722;2022-12-17T10:39:12;70.25;;;23.70;;
64795;SDS011;51229;51.980;6.722;2022-12-17T10:42:26;70.60;;;26.02;;
64795;SDS011;51229;51.980;6.722;2022-12-17T10:51:01;70.00;;;22.63;;
64795;SDS011;51229;51.980;6.722;2022-12-17T10:53:50;63.78;;;21.55;;
64795;SDS011;51229;51.980;6.722;2022-12-17T10:56:35;59.67;;;20.33;;
64795;SDS011;51229;51.980;6.722;2022-12-17T10:59:31;57.72;;;20.83;;
64795;SDS011;51229;51.980;6.722;2022-12-17T11:02:20;52.00;;;17.48;;
64795;SDS011;51229;51.980;6.722;2022-12-17T11:05:14;48.13;;;17.27;;
64795;SDS011;51229;51.980;6.722;2022-12-17T11:08:05;51.08;;;17.38;;
64795;SDS011;51229;51.980;6.722;2022-12-17T11:10:51;60.03;;;20.20;;
64795;SDS011;51229;51.980;6.722;2022-12-17T11:13:40;67.28;;;25.25;;
64795;SDS011;51229;51.980;6.722;2022-12-17T11:16:32;50.25;;;17.83;;
64795;SDS011;51229;51.980;6.722;2022-12-17T11:19:35;51.78;;;18.50;;
64795;SDS011;51229;51.980;6.722;2022-12-17T11:22:42;61.85;;;22.23;;
64795;SDS011;51229;51.980;6.722;2022-12-17T11:25:30;55.67;;;18.23;;
64795;SDS011;51229;51.980;6.722;2022-12-17T11:28:22;70.35;;;26.10;;
64795;SDS011;51229;51.980;6.722;2022-12-17T11:31:14;57.10;;;21.90;;
64795;SDS011;51229;51.980;6.722;2022-12-17T11:34:38;64.50;;;21.95;;
64795;SDS011;51229;51.980;6.722;2022-12-17T11:40:41;47.25;;;19.38;;
64795;SDS011;51229;51.980;6.722;2022-12-17T11:43:45;61.42;;;23.45;;
64795;SDS011;51229;51.980;6.722;2022-12-17T11:55:45;56.38;;;20.17;;
64795;SDS011;51229;51.980;6.722;2022-12-17T12:18:12;60.58;;;22.83;;
64795;SDS011;51229;51.980;6.722;2022-12-17T12:21:27;65.15;;;25.05;;
64795;SDS011;51229;51.980;6.722;2022-12-17T12:27:22;52.50;;;20.70;;
64795;SDS011;51229;51.980;6.722;2022-12-17T12:30:26;63.92;;;24.42;;
64795;SDS011;51229;51.980;6.722;2022-12-17T12:33:56;59.33;;;22.83;;
64795;SDS011;51229;51.980;6.722;2022-12-17T12:39:46;67.20;;;28.02;;
64795;SDS011;51229;51.980;6.722;2022-12-17T12:42:46;57.63;;;23.05;;
64795;SDS011;51229;51.980;6.722;2022-12-17T12:45:42;62.88;;;24.98;;
64795;SDS011;51229;51.980;6.722;2022-12-17T12:48:44;54.83;;;21.88;;
64795;SDS011;51229;51.980;6.722;2022-12-17T12:51:57;55.03;;;20.27;;
64795;SDS011;51229;51.980;6.722;2022-12-17T12:57:32;63.08;;;23.90;;
64795;SDS011;51229;51.980;6.722;2022-12-17T13:00:24;67.53;;;26.38;;
64795;SDS011;51229;51.980;6.722;2022-12-17T13:06:56;56.63;;;23.58;;
64795;SDS011;51229;51.980;6.722;2022-12-17T13:11:45;59.17;;;25.52;;
64795;SDS011;51229;51.980;6.722;2022-12-17T13:24:49;55.13;;;22.17;;
64795;SDS011;51229;51.980;6.722;2022-12-17T13:27:42;49.25;;;21.95;;
64795;SDS011;51229;51.980;6.722;2022-12-17T13:38:08;49.75;;;20.15;;
64795;SDS011;51229;51.980;6.722;2022-12-17T13:43:38;50.42;;;18.92;;
64795;SDS011;51229;51.980;6.722;2022-12-17T13:46:22;51.08;;;19.70;;
64795;SDS011;51229;51.980;6.722;2022-12-17T13:51:19;58.20;;;20.90;;
64795;SDS011;51229;51.980;6.722;2022-12-17T13:53:53;57.15;;;22.48;;
64795;SDS011;51229;51.980;6.722;2022-12-17T13:56:22;55.78;;;23.23;;
64795;SDS011;51229;51.980;6.722;2022-12-17T13:58:53;55.15;;;21.48;;
64795;SDS011;51229;51.980;6.722;2022-12-17T14:01:20;59.25;;;23.33;;
64795;SDS011;51229;51.980;6.722;2022-12-17T14:03:56;59.72;;;25.35;;
64795;SDS011;51229;51.980;6.722;2022-12-17T14:06:28;61.95;;;22.13;;
64795;SDS011;51229;51.980;6.722;2022-12-17T14:11:24;57.40;;;22.55;;
64795;SDS011;51229;51.980;6.722;2022-12-17T14:14:12;57.35;;;23.23;;
64795;SDS011;51229;51.980;6.722;2022-12-17T14:16:51;46.25;;;18.60;;
64795;SDS011;51229;51.980;6.722;2022-12-17T14:19:20;51.42;;;19.27;;
64795;SDS011;51229;51.980;6.722;2022-12-17T14:21:47;72.03;;;28.27;;
64795;SDS011;51229;51.980;6.722;2022-12-17T14:24:12;56.15;;;22.73;;
64795;SDS011;51229;51.980;6.722;2022-12-17T14:26:50;58.67;;;23.13;;
64795;SDS011;51229;51.980;6.722;2022-12-17T14:29:24;62.33;;;25.92;;
64795;SDS011;51229;51.980;6.722;2022-12-17T14:32:24;64.13;;;23.60;;
64795;SDS011;51229;51.980;6.722;2022-12-17T14:35:00;59.17;;;23.55;;
64795;SDS011;51229;51.980;6.722;2022-12-17T14:37:26;55.90;;;22.27;;
64795;SDS011;51229;51.980;6.722;2022-12-17T14:39:53;47.22;;;17.33;;
64795;SDS011;51229;51.980;6.722;2022-12-17T14:42:24;51.17;;;20.80;;
64795;SDS011;51229;51.980;6.722;2022-12-17T14:44:53;51.70;;;20.55;;
64795;SDS011;51229;51.980;6.722;2022-12-17T14:49:55;54.58;;;20.25;;
64795;SDS011;51229;51.980;6.722;2022-12-17T14:55:20;60.20;;;21.90;;
64795;SDS011;51229;51.980;6.722;2022-12-17T15:00:39;50.83;;;20.10;;
64795;SDS011;51229;51.980;6.722;2022-12-17T15:03:21;55.65;;;21.52;;
64795;SDS011;51229;51.980;6.722;2022-12-17T15:05:59;62.22;;;23.58;;
64795;SDS011;51229;51.980;6.722;2022-12-17T15:08:29;64.78;;;25.83;;
64795;SDS011;51229;51.980;6.722;2022-12-17T15:10:58;49.65;;;21.38;;
64795;SDS011;51229;51.980;6.722;2022-12-17T15:13:23;60.47;;;22.70;;
64795;SDS011;51229;51.980;6.722;2022-12-17T15:15:49;59.72;;;21.08;;
64795;SDS011;51229;51.980;6.722;2022-12-17T15:18:15;70.32;;;32.03;;
64795;SDS011;51229;51.980;6.722;2022-12-17T15:20:40;68.30;;;24.10;;
64795;SDS011;51229;51.980;6.722;2022-12-17T15:23:25;54.15;;;20.23;;
64795;SDS011;51229;51.980;6.722;2022-12-17T15:25:51;63.67;;;23.48;;
64795;SDS011;51229;51.980;6.722;2022-12-17T15:28:18;73.40;;;27.27;;
64795;SDS011;51229;51.980;6.722;2022-12-17T15:30:45;68.70;;;26.60;;
64795;SDS011;51229;51.980;6.722;2022-12-17T15:33:15;58.25;;;21.63;;
64795;SDS011;51229;51.980;6.722;2022-12-17T15:35:41;60.67;;;23.05;;
64795;SDS011;51229;51.980;6.722;2022-12-17T15:38:08;58.47;;;22.08;;
64795;SDS011;51229;51.980;6.722;2022-12-17T15:40:35;55.70;;;21.95;;
64795;SDS011;51229;51.980;6.722;2022-12-17T15:43:02;54.88;;;20.80;;
64795;SDS011;51229;51.980;6.722;2022-12-17T15:45:41;65.78;;;21.63;;
64795;SDS011;51229;51.980;6.722;2022-12-17T15:48:14;53.38;;;21.23;;
64795;SDS011;51229;51.980;6.722;2022-12-17T15:50:42;57.67;;;19.95;;
64795;SDS011;51229;51.980;6.722;2022-12-17T15:53:07;53.20;;;20.60;;
64795;SDS011;51229;51.980;6.722;2022-12-17T15:55:34;61.05;;;22.05;;
64795;SDS011;51229;51.980;6.722;2022-12-17T15:58:01;62.50;;;23.42;;
64795;SDS011;51229;51.980;6.722;2022-12-17T16:00:27;58.35;;;20.88;;
64795;SDS011;51229;51.980;6.722;2022-12-17T16:02:53;67.57;;;25.10;;
64795;SDS011;51229;51.980;6.722;2022-12-17T16:05:20;63.58;;;24.80;;
64795;SDS011;51229;51.980;6.722;2022-12-17T16:07:46;71.25;;;25.40;;
64795;SDS011;51229;51.980;6.722;2022-12-17T16:10:13;72.50;;;26.02;;
64795;SDS011;51229;51.980;6.722;2022-12-17T16:12:39;75.38;;;29.38;;
64795;SDS011;51229;51.980;6.722;2022-12-17T16:15:05;72.72;;;28.10;;
64795;SDS011;51229;51.980;6.722;2022-12-17T16:17:32;64.47;;;24.48;;
64795;SDS011;51229;51.980;6.722;2022-12-17T16:19:58;62.08;;;22.73;;
64795;SDS011;51229;51.980;6.722;2022-12-17T16:22:25;67.95;;;26.20;;
64795;SDS011;51229;51.980;6.722;2022-12-17T16:24:51;64.32;;;23.30;;
64795;SDS011;51229;51.980;6.722;2022-12-17T16:27:17;68.00;;;23.55;;
64795;SDS011;51229;51.980;6.722;2022-12-17T16:29:45;68.40;;;24.42;;
64795;SDS011;51229;51.980;6.722;2022-12-17T16:32:15;67.15;;;22.80;;
64795;SDS011;51229;51.980;6.722;2022-12-17T16:34:42;60.85;;;21.23;;
64795;SDS011;51229;51.980;6.722;2022-12-17T16:37:08;64.88;;;23.77;;
64795;SDS011;51229;51.980;6.722;2022-12-17T16:39:34;66.55;;;25.13;;
64795;SDS011;51229;51.980;6.722;2022-12-17T16:42:00;69.85;;;26.45;;
64795;SDS011;51229;51.980;6.722;2022-12-17T16:44:26;66.63;;;25.38;;
64795;SDS011;51229;51.980;6.722;2022-12-17T16:46:51;74.90;;;26.20;;
64795;SDS011;51229;51.980;6.722;2022-12-17T16:49:18;72.43;;;23.75;;
64795;SDS011;51229;51.980;6.722;2022-12-17T16:51:47;61.28;;;22.17;;
64795;SDS011;51229;51.980;6.722;2022-12-17T16:54:14;74.22;;;26.25;;
64795;SDS011;51229;51.980;6.722;2022-12-17T16:56:43;73.15;;;25.33;;
64795;SDS011;51229;51.980;6.722;2022-12-17T16:59:10;60.42;;;21.63;;
64795;SDS011;51229;51.980;6.722;2022-12-17T17:01:41;66.50;;;25.25;;
64795;SDS011;51229;51.980;6.722;2022-12-17T17:04:12;74.22;;;26.55;;
64795;SDS011;51229;51.980;6.722;2022-12-17T17:06:39;71.53;;;24.00;;
64795;SDS011;51229;51.980;6.722;2022-12-17T17:09:07;85.63;;;28.77;;
64795;SDS011;51229;51.980;6.722;2022-12-17T17:11:33;67.63;;;23.45;;
64795;SDS011;51229;51.980;6.722;2022-12-17T17:13:59;76.68;;;25.42;;
64795;SDS011;51229;51.980;6.722;2022-12-17T17:16:25;65.88;;;22.92;;
64795;SDS011;51229;51.980;6.722;2022-12-17T17:18:51;64.03;;;22.77;;
64795;SDS011;51229;51.980;6.722;2022-12-17T17:23:47;61.13;;;19.92;;
64795;SDS011;51229;51.980;6.722;2022-12-17T17:26:21;66.63;;;25.70;;
64795;SDS011;51229;51.980;6.722;2022-12-17T17:28:47;79.25;;;25.63;;